sensor_id;sensor_type;location;lat;lon;timestamp;pressure;altitude;pressure_sealevel;temperature;humidity
8298;BME280;4187;42.778;23.242;2024-02-16T00:02:14;95897.34;;;0.91;100.00
8298;BME280;4187;42.778;23.242;2024-02-16T00:04:40;95901.19;;;1.01;100.00
8298;BME280;4187;42.778;23.242;2024-02-16T00:07:07;95901.88;;;1.04;100.00
8298;BME280;4187;42.778;23.242;2024-02-16T00:09:34;95851.00;;;0.82;100.00
8298;BME280;4187;42.778;23.242;2024-02-16T00:12:01;95897.06;;;1.14;100.00
8298;BME280;4187;42.778;23.242;2024-02-16T00:14:28;95877.59;;;1.05;100.00
8298;BME280;4187;42.778;23.242;2024-02-16T00:16:56;95892.88;;;1.11;100.00
8298;BME280;4187;42.778;23.242;2024-02-16T00:19:22;95874.34;;;1.00;100.00
8298;BME280;4187;42.778;23.242;2024-02-16T00:21:50;95899.47;;;1.18;100.00
8298;BME280;4187;42.778;23.242;2024-02-16T00:24:17;95901.13;;;1.19;100.00
8298;BME280;4187;42.778;23.242;2024-02-16T00:26:44;95895.19;;;1.17;100.00
8298;BME280;4187;42.778;23.242;2024-02-16T00:29:12;95882.59;;;0.91;100.00
8298;BME280;4187;42.778;23.242;2024-02-16T00:31:38;95904.38;;;1.06;100.00
8298;BME280;4187;42.778;23.242;2024-02-16T00:34:07;95902.59;;;1.08;100.00
8298;BME280;4187;42.778;23.242;2024-02-16T00:36:33;95854.03;;;0.73;100.00
8298;BME280;4187;42.778;23.242;2024-02-16T00:39:00;95907.97;;;1.03;100.00
8298;BME280;4187;42.778;23.242;2024-02-16T00:41:29;95903.72;;;1.02;100.00
8298;BME280;4187;42.778;23.242;2024-02-16T00:43:56;95892.63;;;0.80;100.00
8298;BME280;4187;42.778;23.242;2024-02-16T00:46:22;95902.91;;;0.65;100.00
8298;BME280;4187;42.778;23.242;2024-02-16T00:48:50;95879.09;;;0.36;100.00
8298;BME280;4187;42.778;23.242;2024-02-16T00:51:18;95901.97;;;0.47;100.00
8298;BME280;4187;42.778;23.242;2024-02-16T00:53:45;95902.09;;;0.44;100.00
8298;BME280;4187;42.778;23.242;2024-02-16T00:56:12;95899.25;;;0.50;100.00
8298;BME280;4187;42.778;23.242;2024-02-16T00:58:40;95904.31;;;0.53;100.00
8298;BME280;4187;42.778;23.242;2024-02-16T01:01:08;95891.72;;;0.63;100.00
8298;BME280;4187;42.778;23.242;2024-02-16T01:03:36;95897.41;;;0.71;100.00
8298;BME280;4187;42.778;23.242;2024-02-16T01:06:04;95898.47;;;0.67;100.00
8298;BME280;4187;42.778;23.242;2024-02-16T01:08:32;95871.25;;;0.38;100.00
8298;BME280;4187;42.778;23.242;2024-02-16T01:10:59;95891.53;;;0.48;100.00
8298;BME280;4187;42.778;23.242;2024-02-16T01:13:26;95874.66;;;0.38;100.00
8298;BME280;4187;42.778;23.242;2024-02-16T01:15:53;95886.47;;;0.64;100.00
8298;BME280;4187;42.778;23.242;2024-02-16T01:18:19;95887.88;;;0.71;100.00
8298;BME280;4187;42.778;23.242;2024-02-16T01:20:46;95866.97;;;0.55;100.00
8298;BME280;4187;42.778;23.242;2024-02-16T01:23:13;95865.34;;;0.53;100.00
8298;BME280;4187;42.778;23.242;2024-02-16T01:25:41;95885.63;;;0.64;100.00
8298;BME280;4187;42.778;23.242;2024-02-16T01:28:08;95882.41;;;0.58;100.00
8298;BME280;4187;42.778;23.242;2024-02-16T01:30:37;95879.84;;;0.57;100.00
8298;BME280;4187;42.778;23.242;2024-02-16T01:33:04;95874.19;;;0.49;100.00
8298;BME280;4187;42.778;23.242;2024-02-16T01:35:31;95878.75;;;0.44;100.00
8298;BME280;4187;42.778;23.242;2024-02-16T01:37:58;95869.41;;;0.40;100.00
8298;BME280;4187;42.778;23.242;2024-02-16T01:40:25;95872.22;;;0.54;100.00
8298;BME280;4187;42.778;23.242;2024-02-16T01:42:54;95881.19;;;0.47;100.00
8298;BME280;4187;42.778;23.242;2024-02-16T01:45:21;95848.03;;;0.35;100.00
8298;BME280;4187;42.778;23.242;2024-02-16T01:47:49;95877.44;;;0.54;100.00
8298;BME280;4187;42.778;23.242;2024-02-16T01:50:18;95836.03;;;0.32;100.00
8298;BME280;4187;42.778;23.242;2024-02-16T01:52:47;95878.88;;;0.59;100.00
8298;BME280;4187;42.778;23.242;2024-02-16T01:55:14;95870.75;;;0.67;100.00
8298;BME280;4187;42.778;23.242;2024-02-16T01:57:43;95875.00;;;0.68;100.00
8298;BME280;4187;42.778;23.242;2024-02-16T02:00:13;95876.44;;;0.75;100.00
8298;BME280;4187;42.778;23.242;2024-02-16T02:02:44;95876.06;;;0.83;100.00
8298;BME280;4187;42.778;23.242;2024-02-16T02:05:11;95871.56;;;0.86;100.00
8298;BME280;4187;42.778;23.242;2024-02-16T02:07:40;95874.31;;;0.83;100.00
8298;BME280;4187;42.778;23.242;2024-02-16T02:10:08;95881.25;;;0.83;100.00
8298;BME280;4187;42.778;23.242;2024-02-16T02:12:37;95875.59;;;0.75;100.00
8298;BME280;4187;42.778;23.242;2024-02-16T02:15:07;95873.38;;;0.84;100.00
8298;BME280;4187;42.778;23.242;2024-02-16T02:17:36;95871.72;;;0.83;100.00
8298;BME280;4187;42.778;23.242;2024-02-16T02:20:03;95865.94;;;0.77;100.00
8298;BME280;4187;42.778;23.242;2024-02-16T02:22:34;95876.06;;;0.83;100.00
8298;BME280;4187;42.778;23.242;2024-02-16T02:25:00;95872.84;;;0.78;100.00
8298;BME280;4187;42.778;23.242;2024-02-16T02:27:27;95879.03;;;0.75;100.00
8298;BME280;4187;42.778;23.242;2024-02-16T02:29:54;95877.06;;;0.80;100.00
8298;BME280;4187;42.778;23.242;2024-02-16T02:32:21;95878.81;;;0.80;100.00
8298;BME280;4187;42.778;23.242;2024-02-16T02:34:48;95870.66;;;0.69;100.00
8298;BME280;4187;42.778;23.242;2024-02-16T02:37:14;95870.13;;;0.62;100.00
8298;BME280;4187;42.778;23.242;2024-02-16T02:39:42;95875.31;;;0.62;100.00
8298;BME280;4187;42.778;23.242;2024-02-16T02:42:09;95877.56;;;0.51;100.00
8298;BME280;4187;42.778;23.242;2024-02-16T02:44:36;95882.31;;;0.41;100.00
8298;BME280;4187;42.778;23.242;2024-02-16T02:47:03;95876.34;;;0.39;100.00
8298;BME280;4187;42.778;23.242;2024-02-16T02:49:30;95875.09;;;0.48;100.00
8298;BME280;4187;42.778;23.242;2024-02-16T02:51:58;95875.16;;;0.46;100.00
8298;BME280;4187;42.778;23.242;2024-02-16T02:54:25;95870.06;;;0.45;100.00
8298;BME280;4187;42.778;23.242;2024-02-16T02:56:53;95871.53;;;0.50;100.00
8298;BME280;4187;42.778;23.242;2024-02-16T02:59:20;95881.56;;;0.58;100.00
8298;BME280;4187;42.778;23.242;2024-02-16T03:01:46;95879.84;;;0.57;100.00
8298;BME280;4187;42.778;23.242;2024-02-16T03:04:13;95879.84;;;0.57;100.00
8298;BME280;4187;42.778;23.242;2024-02-16T03:06:40;95841.00;;;0.37;100.00
8298;BME280;4187;42.778;23.242;2024-02-16T03:09:07;95879.19;;;0.53;100.00
8298;BME280;4187;42.778;23.242;2024-02-16T03:11:34;95870.75;;;0.48;100.00
8298;BME280;4187;42.778;23.242;2024-02-16T03:14:02;95872.50;;;0.48;100.00
8298;BME280;4187;42.778;23.242;2024-02-16T03:16:30;95884.38;;;0.53;100.00
8298;BME280;4187;42.778;23.242;2024-02-16T03:18:57;95863.25;;;0.42;100.00
8298;BME280;4187;42.778;23.242;2024-02-16T03:21:24;95868.50;;;0.41;100.00
8298;BME280;4187;42.778;23.242;2024-02-16T03:23:51;95888.28;;;0.43;100.00
8298;BME280;4187;42.778;23.242;2024-02-16T03:26:19;95892.69;;;0.41;100.00
8298;BME280;4187;42.778;23.242;2024-02-16T03:28:47;95894.44;;;0.41;100.00
8298;BME280;4187;42.778;23.242;2024-02-16T03:31:19;95863.03;;;0.28;100.00
8298;BME280;4187;42.778;23.242;2024-02-16T03:33:46;95867.22;;;0.31;100.00
8298;BME280;4187;42.778;23.242;2024-02-16T03:36:13;95889.97;;;0.44;100.00
8298;BME280;4187;42.778;23.242;2024-02-16T03:38:41;95873.75;;;0.39;100.00
8298;BME280;4187;42.778;23.242;2024-02-16T03:41:12;95875.78;;;0.51;100.00
8298;BME280;4187;42.778;23.242;2024-02-16T03:43:39;95882.91;;;0.48;100.00
8298;BME280;4187;42.778;23.242;2024-02-16T03:46:06;95883.16;;;0.42;100.00
8298;BME280;4187;42.778;23.242;2024-02-16T03:48:35;95883.88;;;0.45;100.00
8298;BME280;4187;42.778;23.242;2024-02-16T03:51:01;95883.25;;;0.40;100.00
8298;BME280;4187;42.778;23.242;2024-02-16T03:53:29;95889.75;;;0.30;100.00
8298;BME280;4187;42.778;23.242;2024-02-16T03:55:56;95888.06;;;0.11;100.00
8298;BME280;4187;42.778;23.242;2024-02-16T03:58:23;95885.50;;;0.09;100.00
8298;BME280;4187;42.778;23.242;2024-02-16T04:00:50;95890.19;;;0.01;100.00
8298;BME280;4187;42.778;23.242;2024-02-16T04:03:18;95877.19;;;0.03;100.00
8298;BME280;4187;42.778;23.242;2024-02-16T04:05:46;95881.50;;;0.02;100.00
8298;BME280;4187;42.778;23.242;2024-02-16T04:08:13;95883.00;;;0.08;100.00
8298;BME280;4187;42.778;23.242;2024-02-16T04:10:40;95801.22;;;-0.40;100.00
8298;BME280;4187;42.778;23.242;2024-02-16T04:13:07;95879.81;;;0.01;100.00
8298;BME280;4187;42.778;23.242;2024-02-16T04:15:33;95866.41;;;-0.09;100.00
8298;BME280;4187;42.778;23.242;2024-02-16T04:18:00;95870.88;;;-0.12;100.00
8298;BME280;4187;42.778;23.242;2024-02-16T04:20:27;95878.28;;;-0.03;100.00
8298;BME280;4187;42.778;23.242;2024-02-16T04:22:55;95876.81;;;0.10;100.00
8298;BME280;4187;42.778;23.242;2024-02-16T04:25:22;95872.16;;;-0.02;100.00
8298;BME280;4187;42.778;23.242;2024-02-16T04:27:49;95880.28;;;-0.10;100.00
8298;BME280;4187;42.778;23.242;2024-02-16T04:30:16;95890.03;;;-0.15;100.00
8298;BME280;4187;42.778;23.242;2024-02-16T04:32:43;95895.47;;;-0.21;100.00
8298;BME280;4187;42.778;23.242;2024-02-16T04:35:10;95889.44;;;-0.21;100.00
8298;BME280;4187;42.778;23.242;2024-02-16T04:37:37;95879.25;;;-0.46;100.00
8298;BME280;4187;42.778;23.242;2024-02-16T04:40:07;95887.75;;;-0.42;100.00
8298;BME280;4187;42.778;23.242;2024-02-16T04:42:37;95865.41;;;-0.65;100.00
8298;BME280;4187;42.778;23.242;2024-02-16T04:45:06;95870.50;;;-0.64;100.00
8298;BME280;4187;42.778;23.242;2024-02-16T04:47:33;95892.09;;;-0.43;100.00
8298;BME280;4187;42.778;23.242;2024-02-16T04:50:00;95862.59;;;-0.61;100.00
8298;BME280;4187;42.778;23.242;2024-02-16T04:52:27;95888.94;;;-0.49;100.00
8298;BME280;4187;42.778;23.242;2024-02-16T04:54:54;95887.88;;;-0.45;100.00
8298;BME280;4187;42.778;23.242;2024-02-16T04:57:22;95891.91;;;-0.38;100.00
8298;BME280;4187;42.778;23.242;2024-02-16T04:59:49;95903.44;;;-0.45;100.00
8298;BME280;4187;42.778;23.242;2024-02-16T05:02:17;95889.31;;;-0.58;100.00
8298;BME280;4187;42.778;23.242;2024-02-16T05:04:43;95904.41;;;-0.48;100.00
8298;BME280;4187;42.778;23.242;2024-02-16T05:07:10;95884.00;;;-0.55;100.00
8298;BME280;4187;42.778;23.242;2024-02-16T05:09:37;95903.97;;;-0.37;100.00
8298;BME280;4187;42.778;23.242;2024-02-16T05:12:05;95871.81;;;-0.53;100.00
8298;BME280;4187;42.778;23.242;2024-02-16T05:14:36;95909.00;;;-0.34;100.00
8298;BME280;4187;42.778;23.242;2024-02-16T05:17:03;95882.16;;;-0.53;100.00
8298;BME280;4187;42.778;23.242;2024-02-16T05:19:32;95920.25;;;-0.34;100.00
8298;BME280;4187;42.778;23.242;2024-02-16T05:22:00;95913.88;;;-0.27;100.00
8298;BME280;4187;42.778;23.242;2024-02-16T05:24:26;95927.03;;;-0.31;100.00
8298;BME280;4187;42.778;23.242;2024-02-16T05:26:53;95926.91;;;-0.28;100.00
8298;BME280;4187;42.778;23.242;2024-02-16T05:29:21;95926.41;;;-0.36;100.00
8298;BME280;4187;42.778;23.242;2024-02-16T05:31:52;95924.56;;;-0.34;100.00
8298;BME280;4187;42.778;23.242;2024-02-16T05:34:19;95911.69;;;-0.36;100.00
8298;BME280;4187;42.778;23.242;2024-02-16T05:36:45;95928.97;;;-0.16;100.00
8298;BME280;4187;42.778;23.242;2024-02-16T05:39:13;95933.06;;;-0.11;100.00
8298;BME280;4187;42.778;23.242;2024-02-16T05:41:52;95933.88;;;-0.09;100.00
8298;BME280;4187;42.778;23.242;2024-02-16T05:44:18;95939.69;;;-0.04;100.00
8298;BME280;4187;42.778;23.242;2024-02-16T05:46:46;95928.72;;;-0.10;100.00
8298;BME280;4187;42.778;23.242;2024-02-16T05:49:14;95945.72;;;-0.03;100.00
8298;BME280;4187;42.778;23.242;2024-02-16T05:51:41;95946.31;;;0.04;100.00
8298;BME280;4187;42.778;23.242;2024-02-16T05:54:25;95870.13;;;-0.34;100.00
8298;BME280;4187;42.778;23.242;2024-02-16T05:56:52;95949.03;;;0.21;100.00
8298;BME280;4187;42.778;23.242;2024-02-16T05:59:19;95944.00;;;0.36;100.00
8298;BME280;4187;42.778;23.242;2024-02-16T06:01:47;95921.88;;;0.28;100.00
8298;BME280;4187;42.778;23.242;2024-02-16T06:04:15;95945.84;;;0.53;100.00
8298;BME280;4187;42.778;23.242;2024-02-16T06:06:42;95943.13;;;0.75;100.00
8298;BME280;4187;42.778;23.242;2024-02-16T06:09:09;95933.22;;;0.83;100.00
8298;BME280;4187;42.778;23.242;2024-02-16T06:11:36;95948.19;;;0.96;100.00
8298;BME280;4187;42.778;23.242;2024-02-16T06:14:03;95949.19;;;1.11;100.00
8298;BME280;4187;42.778;23.242;2024-02-16T06:16:30;95959.88;;;1.24;100.00
8298;BME280;4187;42.778;23.242;2024-02-16T06:18:57;95943.44;;;1.23;100.00
8298;BME280;4187;42.778;23.242;2024-02-16T06:21:25;95938.47;;;1.36;100.00
8298;BME280;4187;42.778;23.242;2024-02-16T06:23:52;95956.50;;;1.57;100.00
8298;BME280;4187;42.778;23.242;2024-02-16T06:26:19;95950.72;;;1.69;100.00
8298;BME280;4187;42.778;23.242;2024-02-16T06:28:46;95954.16;;;1.87;100.00
8298;BME280;4187;42.778;23.242;2024-02-16T06:31:13;95953.41;;;2.02;100.00
8298;BME280;4187;42.778;23.242;2024-02-16T06:33:41;95961.16;;;2.19;100.00
8298;BME280;4187;42.778;23.242;2024-02-16T06:36:08;95952.59;;;2.34;100.00
8298;BME280;4187;42.778;23.242;2024-02-16T06:38:36;95961.03;;;2.55;100.00
8298;BME280;4187;42.778;23.242;2024-02-16T06:41:04;95957.56;;;2.72;100.00
8298;BME280;4187;42.778;23.242;2024-02-16T06:43:30;95962.03;;;2.85;100.00
8298;BME280;4187;42.778;23.242;2024-02-16T06:45:57;95951.50;;;2.87;100.00
8298;BME280;4187;42.778;23.242;2024-02-16T06:48:24;95948.84;;;3.04;100.00
8298;BME280;4187;42.778;23.242;2024-02-16T06:50:51;95971.41;;;3.36;100.00
8298;BME280;4187;42.778;23.242;2024-02-16T06:53:19;95969.44;;;3.55;100.00
8298;BME280;4187;42.778;23.242;2024-02-16T06:55:47;95948.69;;;3.54;100.00
8298;BME280;4187;42.778;23.242;2024-02-16T06:58:14;95977.66;;;3.79;100.00
8298;BME280;4187;42.778;23.242;2024-02-16T07:00:41;95977.28;;;4.01;100.00
8298;BME280;4187;42.778;23.242;2024-02-16T07:03:08;95979.31;;;4.26;100.00
8298;BME280;4187;42.778;23.242;2024-02-16T07:05:35;95977.88;;;4.50;100.00
8298;BME280;4187;42.778;23.242;2024-02-16T07:08:03;95973.22;;;4.69;100.00
8298;BME280;4187;42.778;23.242;2024-02-16T07:10:31;95971.72;;;4.93;100.00
8298;BME280;4187;42.778;23.242;2024-02-16T07:13:00;95973.47;;;5.21;100.00
8298;BME280;4187;42.778;23.242;2024-02-16T07:15:26;95977.47;;;5.40;100.00
8298;BME280;4187;42.778;23.242;2024-02-16T07:17:53;95954.63;;;5.57;100.00
8298;BME280;4187;42.778;23.242;2024-02-16T07:20:20;95982.97;;;5.91;100.00
8298;BME280;4187;42.778;23.242;2024-02-16T07:22:47;95959.91;;;5.96;100.00
8298;BME280;4187;42.778;23.242;2024-02-16T07:25:17;95943.28;;;6.10;100.00
8298;BME280;4187;42.778;23.242;2024-02-16T07:27:43;95984.16;;;6.51;100.00
8298;BME280;4187;42.778;23.242;2024-02-16T07:30:12;95922.88;;;6.90;100.00
8298;BME280;4187;42.778;23.242;2024-02-16T07:32:39;95977.59;;;7.33;100.00
8298;BME280;4187;42.778;23.242;2024-02-16T07:35:07;95984.41;;;7.48;100.00
8298;BME280;4187;42.778;23.242;2024-02-16T07:37:35;95986.38;;;7.57;100.00
8298;BME280;4187;42.778;23.242;2024-02-16T07:40:03;95997.22;;;7.76;100.00
8298;BME280;4187;42.778;23.242;2024-02-16T07:42:31;95993.28;;;7.94;100.00
8298;BME280;4187;42.778;23.242;2024-02-16T07:45:01;95991.72;;;8.15;98.69
8298;BME280;4187;42.778;23.242;2024-02-16T07:47:31;95993.13;;;8.32;97.84
8298;BME280;4187;42.778;23.242;2024-02-16T07:49:58;95999.16;;;8.45;97.80
8298;BME280;4187;42.778;23.242;2024-02-16T07:52:25;95998.84;;;8.61;98.33
8298;BME280;4187;42.778;23.242;2024-02-16T07:54:52;96001.28;;;8.75;96.99
8298;BME280;4187;42.778;23.242;2024-02-16T07:57:18;95966.00;;;8.77;97.35
8298;BME280;4187;42.778;23.242;2024-02-16T07:59:45;96003.00;;;9.09;95.96
8298;BME280;4187;42.778;23.242;2024-02-16T08:02:12;95995.72;;;9.24;95.75
8298;BME280;4187;42.778;23.242;2024-02-16T08:04:42;96004.81;;;9.42;95.72
8298;BME280;4187;42.778;23.242;2024-02-16T08:07:09;96004.56;;;9.56;93.71
8298;BME280;4187;42.778;23.242;2024-02-16T08:09:36;96002.41;;;9.61;93.43
8298;BME280;4187;42.778;23.242;2024-02-16T08:12:04;96001.78;;;9.69;93.66
8298;BME280;4187;42.778;23.242;2024-02-16T08:14:32;95996.72;;;9.88;96.34
8298;BME280;4187;42.778;23.242;2024-02-16T08:16:59;95999.09;;;10.13;93.06
8298;BME280;4187;42.778;23.242;2024-02-16T08:19:31;96010.03;;;10.40;92.77
8298;BME280;4187;42.778;23.242;2024-02-16T08:22:00;96005.50;;;10.31;88.89
8298;BME280;4187;42.778;23.242;2024-02-16T08:24:27;96002.91;;;10.20;88.98
8298;BME280;4187;42.778;23.242;2024-02-16T08:26:54;95994.75;;;10.23;89.63
8298;BME280;4187;42.778;23.242;2024-02-16T08:29:22;95977.19;;;10.33;90.15
8298;BME280;4187;42.778;23.242;2024-02-16T08:31:49;95980.78;;;10.64;90.38
8298;BME280;4187;42.778;23.242;2024-02-16T08:34:16;95968.03;;;10.69;87.61
8298;BME280;4187;42.778;23.242;2024-02-16T08:36:44;96013.03;;;11.09;87.28
8298;BME280;4187;42.778;23.242;2024-02-16T08:39:12;95969.94;;;11.08;86.25
8298;BME280;4187;42.778;23.242;2024-02-16T08:41:39;95973.41;;;11.39;87.07
8298;BME280;4187;42.778;23.242;2024-02-16T08:44:07;95992.84;;;11.68;86.57
8298;BME280;4187;42.778;23.242;2024-02-16T08:46:34;96007.88;;;11.98;83.83
8298;BME280;4187;42.778;23.242;2024-02-16T08:49:01;96009.97;;;12.04;83.79
8298;BME280;4187;42.778;23.242;2024-02-16T08:51:28;96007.50;;;12.12;83.95
8298;BME280;4187;42.778;23.242;2024-02-16T08:53:55;96008.22;;;12.33;85.20
8298;BME280;4187;42.778;23.242;2024-02-16T08:56:23;96018.69;;;12.54;83.31
8298;BME280;4187;42.778;23.242;2024-02-16T08:58:50;96011.97;;;12.79;82.88
8298;BME280;4187;42.778;23.242;2024-02-16T09:01:17;96014.63;;;12.98;82.60
8298;BME280;4187;42.778;23.242;2024-02-16T09:03:44;96016.31;;;13.18;82.57
8298;BME280;4187;42.778;23.242;2024-02-16T09:06:12;96017.75;;;13.49;80.45
8298;BME280;4187;42.778;23.242;2024-02-16T09:08:39;96015.03;;;13.68;81.19
8298;BME280;4187;42.778;23.242;2024-02-16T09:11:06;96008.28;;;13.84;80.75
8298;BME280;4187;42.778;23.242;2024-02-16T09:13:39;96008.75;;;13.97;80.46
8298;BME280;4187;42.778;23.242;2024-02-16T09:16:06;96001.44;;;14.08;80.64
8298;BME280;4187;42.778;23.242;2024-02-16T09:18:33;96011.34;;;14.33;79.63
8298;BME280;4187;42.778;23.242;2024-02-16T09:21:02;96013.34;;;14.31;76.89
8298;BME280;4187;42.778;23.242;2024-02-16T09:23:29;96010.16;;;14.46;78.44
8298;BME280;4187;42.778;23.242;2024-02-16T09:25:56;96004.56;;;14.66;77.95
8298;BME280;4187;42.778;23.242;2024-02-16T09:28:24;96006.34;;;15.01;77.39
8298;BME280;4187;42.778;23.242;2024-02-16T09:30:54;95995.09;;;15.07;75.08
8298;BME280;4187;42.778;23.242;2024-02-16T09:33:21;96007.22;;;15.27;75.93
8298;BME280;4187;42.778;23.242;2024-02-16T09:35:49;95980.69;;;15.35;74.31
8298;BME280;4187;42.778;23.242;2024-02-16T09:38:17;95999.94;;;15.55;73.79
8298;BME280;4187;42.778;23.242;2024-02-16T09:40:44;96004.41;;;15.54;74.61
8298;BME280;4187;42.778;23.242;2024-02-16T09:43:23;95997.50;;;15.44;74.49
8298;BME280;4187;42.778;23.242;2024-02-16T09:45:54;95987.47;;;15.30;74.35
8298;BME280;4187;42.778;23.242;2024-02-16T09:48:21;95966.91;;;15.40;73.88
8298;BME280;4187;42.778;23.242;2024-02-16T09:50:48;95989.91;;;15.75;72.88
8298;BME280;4187;42.778;23.242;2024-02-16T09:53:17;95994.97;;;15.94;74.66
8298;BME280;4187;42.778;23.242;2024-02-16T09:55:43;95992.19;;;16.11;71.41
8298;BME280;4187;42.778;23.242;2024-02-16T09:58:11;95987.44;;;16.31;71.19
8298;BME280;4187;42.778;23.242;2024-02-16T10:00:47;95956.66;;;16.45;72.90
8298;BME280;4187;42.778;23.242;2024-02-16T10:03:26;95972.56;;;16.87;70.76
8298;BME280;4187;42.778;23.242;2024-02-16T10:06:03;95969.22;;;16.85;66.46
8298;BME280;4187;42.778;23.242;2024-02-16T10:08:31;95976.88;;;16.80;66.98
8298;BME280;4187;42.778;23.242;2024-02-16T10:11:01;95919.53;;;16.43;66.86
8298;BME280;4187;42.778;23.242;2024-02-16T10:13:31;95966.41;;;16.70;67.53
8298;BME280;4187;42.778;23.242;2024-02-16T10:16:05;95957.06;;;16.98;69.65
8298;BME280;4187;42.778;23.242;2024-02-16T10:18:35;95964.56;;;17.19;68.41
8298;BME280;4187;42.778;23.242;2024-02-16T10:21:03;95957.00;;;17.30;67.82
8298;BME280;4187;42.778;23.242;2024-02-16T10:23:29;95944.16;;;17.58;66.59
8298;BME280;4187;42.778;23.242;2024-02-16T10:25:57;95948.44;;;17.75;65.56
8298;BME280;4187;42.778;23.242;2024-02-16T10:28:25;95949.72;;;17.87;63.42
8298;BME280;4187;42.778;23.242;2024-02-16T10:30:57;95944.72;;;17.84;62.62
8298;BME280;4187;42.778;23.242;2024-02-16T10:33:25;95941.78;;;17.63;62.64
8298;BME280;4187;42.778;23.242;2024-02-16T10:35:58;95931.97;;;17.56;65.09
8298;BME280;4187;42.778;23.242;2024-02-16T10:38:28;95933.91;;;17.78;65.40
8298;BME280;4187;42.778;23.242;2024-02-16T10:40:56;95908.28;;;17.61;63.32
8298;BME280;4187;42.778;23.242;2024-02-16T10:43:25;95921.44;;;17.70;61.49
8298;BME280;4187;42.778;23.242;2024-02-16T10:45:53;95915.84;;;17.88;61.82
8298;BME280;4187;42.778;23.242;2024-02-16T10:48:22;95901.41;;;18.05;61.82
8298;BME280;4187;42.778;23.242;2024-02-16T10:50:49;95920.81;;;18.30;63.22
8298;BME280;4187;42.778;23.242;2024-02-16T10:53:22;95913.19;;;18.19;63.33
8298;BME280;4187;42.778;23.242;2024-02-16T10:55:50;95909.13;;;18.00;61.80
8298;BME280;4187;42.778;23.242;2024-02-16T10:58:17;95900.56;;;17.66;61.48
8298;BME280;4187;42.778;23.242;2024-02-16T11:00:49;95896.34;;;17.79;64.12
8298;BME280;4187;42.778;23.242;2024-02-16T11:03:17;95905.66;;;17.91;61.33
8298;BME280;4187;42.778;23.242;2024-02-16T11:05:46;95885.97;;;17.84;60.90
8298;BME280;4187;42.778;23.242;2024-02-16T11:08:14;95892.75;;;17.95;61.42
8298;BME280;4187;42.778;23.242;2024-02-16T11:10:53;95888.78;;;17.91;60.21
8298;BME280;4187;42.778;23.242;2024-02-16T11:13:22;95887.25;;;17.97;62.25
8298;BME280;4187;42.778;23.242;2024-02-16T11:15:56;95881.41;;;18.24;61.48
8298;BME280;4187;42.778;23.242;2024-02-16T11:18:24;95878.16;;;18.14;59.20
8298;BME280;4187;42.778;23.242;2024-02-16T11:20:51;95894.03;;;18.07;59.56
8298;BME280;4187;42.778;23.242;2024-02-16T11:23:24;95885.66;;;17.79;60.21
8298;BME280;4187;42.778;23.242;2024-02-16T11:26:00;95869.88;;;17.70;60.86
8298;BME280;4187;42.778;23.242;2024-02-16T11:28:27;95874.09;;;17.87;61.85
8298;BME280;4187;42.778;23.242;2024-02-16T11:30:54;95874.34;;;18.08;60.54
8298;BME280;4187;42.778;23.242;2024-02-16T11:33:21;95853.47;;;17.81;59.16
8298;BME280;4187;42.778;23.242;2024-02-16T11:35:58;95869.59;;;17.87;60.47
8298;BME280;4187;42.778;23.242;2024-02-16T11:38:26;95867.16;;;17.78;59.06
8298;BME280;4187;42.778;23.242;2024-02-16T11:40:59;95861.47;;;17.81;59.52
8298;BME280;4187;42.778;23.242;2024-02-16T11:43:26;95854.66;;;17.78;59.58
8298;BME280;4187;42.778;23.242;2024-02-16T11:45:53;95858.91;;;17.87;60.69
8298;BME280;4187;42.778;23.242;2024-02-16T11:48:20;95856.69;;;17.99;58.85
8298;BME280;4187;42.778;23.242;2024-02-16T11:50:49;95868.13;;;18.16;58.46
8298;BME280;4187;42.778;23.242;2024-02-16T11:53:19;95857.25;;;18.40;60.90
8298;BME280;4187;42.778;23.242;2024-02-16T11:55:46;95845.25;;;18.81;68.78
8298;BME280;4187;42.778;23.242;2024-02-16T11:58:16;95851.84;;;19.37;64.01
8298;BME280;4187;42.778;23.242;2024-02-16T12:00:44;95848.81;;;19.55;56.73
8298;BME280;4187;42.778;23.242;2024-02-16T12:03:18;95852.88;;;19.51;54.89
8298;BME280;4187;42.778;23.242;2024-02-16T12:05:50;95855.25;;;19.31;52.99
8298;BME280;4187;42.778;23.242;2024-02-16T12:08:17;95851.28;;;19.13;53.62
8298;BME280;4187;42.778;23.242;2024-02-16T12:10:44;95817.88;;;18.94;52.95
8298;BME280;4187;42.778;23.242;2024-02-16T12:13:11;95842.69;;;19.02;51.72
8298;BME280;4187;42.778;23.242;2024-02-16T12:15:39;95844.88;;;18.99;52.09
8298;BME280;4187;42.778;23.242;2024-02-16T12:18:06;95844.25;;;18.37;51.53
8298;BME280;4187;42.778;23.242;2024-02-16T12:20:33;95819.97;;;18.24;55.03
8298;BME280;4187;42.778;23.242;2024-02-16T12:23:10;95837.47;;;18.72;54.67
8298;BME280;4187;42.778;23.242;2024-02-16T12:25:37;95836.56;;;18.79;51.81
8298;BME280;4187;42.778;23.242;2024-02-16T12:28:04;95829.44;;;18.72;51.21
8298;BME280;4187;42.778;23.242;2024-02-16T12:30:33;95819.09;;;18.54;52.79
8298;BME280;4187;42.778;23.242;2024-02-16T12:33:01;95816.25;;;18.25;52.02
8298;BME280;4187;42.778;23.242;2024-02-16T12:35:28;95824.13;;;18.26;52.76
8298;BME280;4187;42.778;23.242;2024-02-16T12:37:55;95820.06;;;17.85;52.74
8298;BME280;4187;42.778;23.242;2024-02-16T12:40:22;95765.03;;;17.45;53.59
8298;BME280;4187;42.778;23.242;2024-02-16T12:42:49;95815.84;;;17.90;53.59
8298;BME280;4187;42.778;23.242;2024-02-16T12:45:15;95818.16;;;17.93;54.00
8298;BME280;4187;42.778;23.242;2024-02-16T12:47:42;95801.66;;;17.90;55.96
8298;BME280;4187;42.778;23.242;2024-02-16T12:50:12;95825.03;;;18.19;54.03
8298;BME280;4187;42.778;23.242;2024-02-16T12:52:39;95820.91;;;18.31;53.36
8298;BME280;4187;42.778;23.242;2024-02-16T12:55:08;95814.97;;;18.43;54.18
8298;BME280;4187;42.778;23.242;2024-02-16T12:57:38;95818.66;;;18.20;53.05
8298;BME280;4187;42.778;23.242;2024-02-16T13:00:07;95819.72;;;18.33;54.74
8298;BME280;4187;42.778;23.242;2024-02-16T13:02:34;95817.63;;;18.52;53.26
8298;BME280;4187;42.778;23.242;2024-02-16T13:05:01;95799.66;;;18.15;53.76
8298;BME280;4187;42.778;23.242;2024-02-16T13:07:29;95817.81;;;17.97;55.37
8298;BME280;4187;42.778;23.242;2024-02-16T13:09:56;95810.81;;;17.96;54.29
8298;BME280;4187;42.778;23.242;2024-02-16T13:12:22;95806.66;;;18.16;65.85
8298;BME280;4187;42.778;23.242;2024-02-16T13:14:49;95806.28;;;18.64;71.52